sensor_id;sensor_type;location;lat;lon;timestamp;P1;durP1;ratioP1;P2;durP2;ratioP2
4634;SDS011;2330;48.158;11.816;2023-07-20T00:01:51;5.13;;;3.10;;
4634;SDS011;2330;48.158;11.816;2023-07-20T00:04:18;8.40;;;4.23;;
4634;SDS011;2330;48.158;11.816;2023-07-20T00:06:45;11.60;;;4.30;;
4634;SDS011;2330;48.158;11.816;2023-07-20T00:09:12;9.53;;;3.90;;
4634;SDS011;2330;48.158;11.816;2023-07-20T00:11:38;7.53;;;3.50;;
4634;SDS011;2330;48.158;11.816;2023-07-20T00:14:05;6.73;;;3.30;;
4634;SDS011;2330;48.158;11.816;2023-07-20T00:16:33;5.33;;;3.00;;
4634;SDS011;2330;48.158;11.816;2023-07-20T00:19:00;8.13;;;3.33;;
4634;SDS011;2330;48.158;11.816;2023-07-20T00:21:27;3.23;;;2.93;;
4634;SDS011;2330;48.158;11.816;2023-07-20T00:23:54;8.63;;;3.40;;
4634;SDS011;2330;48.158;11.816;2023-07-20T00:26:20;6.90;;;2.80;;
4634;SDS011;2330;48.158;11.816;2023-07-20T00:28:49;4.83;;;3.50;;
4634;SDS011;2330;48.158;11.816;2023-07-20T00:31:17;7.00;;;3.43;;
4634;SDS011;2330;48.158;11.816;2023-07-20T00:33:44;4.63;;;3.37;;
4634;SDS011;2330;48.158;11.816;2023-07-20T00:36:11;9.30;;;3.27;;
4634;SDS011;2330;48.158;11.816;2023-07-20T00:38:38;8.23;;;3.07;;
4634;SDS011;2330;48.158;11.816;2023-07-20T00:41:05;3.37;;;2.90;;
4634;SDS011;2330;48.158;11.816;2023-07-20T00:43:32;3.80;;;2.70;;
4634;SDS011;2330;48.158;11.816;2023-07-20T00:45:58;9.30;;;3.57;;
4634;SDS011;2330;48.158;11.816;2023-07-20T00:48:26;3.20;;;2.80;;
4634;SDS011;2330;48.158;11.816;2023-07-20T00:50:52;4.77;;;2.80;;
4634;SDS011;2330;48.158;11.816;2023-07-20T00:53:19;5.27;;;3.27;;
4634;SDS011;2330;48.158;11.816;2023-07-20T00:55:46;5.27;;;2.67;;
4634;SDS011;2330;48.158;11.816;2023-07-20T00:58:13;8.10;;;4.00;;
4634;SDS011;2330;48.158;11.816;2023-07-20T01:00:41;5.47;;;3.00;;
4634;SDS011;2330;48.158;11.816;2023-07-20T01:03:08;3.57;;;2.83;;
4634;SDS011;2330;48.158;11.816;2023-07-20T01:05:40;10.50;;;3.13;;
4634;SDS011;2330;48.158;11.816;2023-07-20T01:08:20;7.77;;;2.83;;
4634;SDS011;2330;48.158;11.816;2023-07-20T01:10:57;3.80;;;2.83;;
4634;SDS011;2330;48.158;11.816;2023-07-20T01:13:30;3.50;;;2.73;;
4634;SDS011;2330;48.158;11.816;2023-07-20T01:15:57;5.20;;;3.37;;
4634;SDS011;2330;48.158;11.816;2023-07-20T01:18:27;4.03;;;2.97;;
4634;SDS011;2330;48.158;11.816;2023-07-20T01:20:56;3.37;;;3.07;;
4634;SDS011;2330;48.158;11.816;2023-07-20T01:23:39;7.80;;;3.00;;
4634;SDS011;2330;48.158;11.816;2023-07-20T01:31:55;8.70;;;2.80;;
4634;SDS011;2330;48.158;11.816;2023-07-20T01:34:24;4.27;;;3.33;;
4634;SDS011;2330;48.158;11.816;2023-07-20T01:36:52;5.00;;;3.10;;
4634;SDS011;2330;48.158;11.816;2023-07-20T01:39:20;5.40;;;2.30;;
4634;SDS011;2330;48.158;11.816;2023-07-20T01:41:48;3.10;;;2.27;;
4634;SDS011;2330;48.158;11.816;2023-07-20T01:44:15;4.13;;;2.80;;
4634;SDS011;2330;48.158;11.816;2023-07-20T01:46:42;3.03;;;2.73;;
4634;SDS011;2330;48.158;11.816;2023-07-20T01:49:08;3.80;;;2.40;;
4634;SDS011;2330;48.158;11.816;2023-07-20T01:51:35;4.07;;;2.90;;
4634;SDS011;2330;48.158;11.816;2023-07-20T01:54:02;3.47;;;2.93;;
4634;SDS011;2330;48.158;11.816;2023-07-20T01:56:29;3.33;;;2.90;;
4634;SDS011;2330;48.158;11.816;2023-07-20T01:58:56;4.83;;;3.07;;
4634;SDS011;2330;48.158;11.816;2023-07-20T02:01:22;9.23;;;2.27;;
4634;SDS011;2330;48.158;11.816;2023-07-20T02:03:49;3.03;;;2.73;;
4634;SDS011;2330;48.158;11.816;2023-07-20T02:06:16;3.90;;;2.60;;
4634;SDS011;2330;48.158;11.816;2023-07-20T02:08:43;3.50;;;2.80;;
4634;SDS011;2330;48.158;11.816;2023-07-20T02:11:10;4.10;;;2.30;;
4634;SDS011;2330;48.158;11.816;2023-07-20T02:13:37;7.73;;;3.07;;
4634;SDS011;2330;48.158;11.816;2023-07-20T02:16:03;4.23;;;2.33;;
4634;SDS011;2330;48.158;11.816;2023-07-20T02:18:31;4.30;;;2.73;;
4634;SDS011;2330;48.158;11.816;2023-07-20T02:20:59;8.13;;;2.60;;
4634;SDS011;2330;48.158;11.816;2023-07-20T02:23:26;8.03;;;3.03;;
4634;SDS011;2330;48.158;11.816;2023-07-20T02:25:52;4.40;;;3.00;;
4634;SDS011;2330;48.158;11.816;2023-07-20T02:28:19;5.40;;;2.77;;
4634;SDS011;2330;48.158;11.816;2023-07-20T02:30:46;3.70;;;2.73;;
4634;SDS011;2330;48.158;11.816;2023-07-20T02:33:13;4.70;;;2.87;;
4634;SDS011;2330;48.158;11.816;2023-07-20T02:35:40;3.90;;;2.40;;
4634;SDS011;2330;48.158;11.816;2023-07-20T02:38:07;4.37;;;2.40;;
4634;SDS011;2330;48.158;11.816;2023-07-20T02:40:34;5.90;;;2.20;;
4634;SDS011;2330;48.158;11.816;2023-07-20T02:43:00;3.60;;;2.40;;
4634;SDS011;2330;48.158;11.816;2023-07-20T02:45:27;6.97;;;1.93;;
4634;SDS011;2330;48.158;11.816;2023-07-20T02:47:54;3.03;;;2.20;;
4634;SDS011;2330;48.158;11.816;2023-07-20T02:50:21;4.33;;;2.10;;
4634;SDS011;2330;48.158;11.816;2023-07-20T02:52:48;3.50;;;2.03;;
4634;SDS011;2330;48.158;11.816;2023-07-20T02:55:15;2.20;;;2.00;;
4634;SDS011;2330;48.158;11.816;2023-07-20T02:57:42;9.30;;;2.70;;
4634;SDS011;2330;48.158;11.816;2023-07-20T03:00:09;3.10;;;2.20;;
4634;SDS011;2330;48.158;11.816;2023-07-20T03:02:37;5.67;;;2.70;;
4634;SDS011;2330;48.158;11.816;2023-07-20T03:05:05;3.50;;;1.93;;
4634;SDS011;2330;48.158;11.816;2023-07-20T03:07:33;4.50;;;2.20;;
4634;SDS011;2330;48.158;11.816;2023-07-20T03:10:00;3.43;;;2.27;;
4634;SDS011;2330;48.158;11.816;2023-07-20T03:12:27;4.00;;;2.17;;
4634;SDS011;2330;48.158;11.816;2023-07-20T03:14:53;2.83;;;2.33;;
4634;SDS011;2330;48.158;11.816;2023-07-20T03:17:20;2.83;;;2.37;;
4634;SDS011;2330;48.158;11.816;2023-07-20T03:19:47;5.90;;;3.37;;
4634;SDS011;2330;48.158;11.816;2023-07-20T03:22:14;15.43;;;3.57;;
4634;SDS011;2330;48.158;11.816;2023-07-20T03:24:41;10.70;;;3.03;;
4634;SDS011;2330;48.158;11.816;2023-07-20T03:27:08;8.40;;;3.40;;
4634;SDS011;2330;48.158;11.816;2023-07-20T03:29:34;4.97;;;3.30;;
4634;SDS011;2330;48.158;11.816;2023-07-20T03:32:02;5.77;;;3.20;;
4634;SDS011;2330;48.158;11.816;2023-07-20T03:34:29;7.17;;;3.00;;
4634;SDS011;2330;48.158;11.816;2023-07-20T03:36:56;6.43;;;2.60;;
4634;SDS011;2330;48.158;11.816;2023-07-20T03:39:22;6.90;;;2.97;;
4634;SDS011;2330;48.158;11.816;2023-07-20T03:41:49;8.27;;;3.10;;
4634;SDS011;2330;48.158;11.816;2023-07-20T03:44:16;10.50;;;2.70;;
4634;SDS011;2330;48.158;11.816;2023-07-20T03:46:43;4.40;;;2.27;;
4634;SDS011;2330;48.158;11.816;2023-07-20T03:49:10;5.10;;;2.77;;
4634;SDS011;2330;48.158;11.816;2023-07-20T03:51:37;5.63;;;2.90;;
4634;SDS011;2330;48.158;11.816;2023-07-20T03:54:04;5.00;;;3.30;;
4634;SDS011;2330;48.158;11.816;2023-07-20T03:56:31;4.40;;;2.93;;
4634;SDS011;2330;48.158;11.816;2023-07-20T03:59:01;3.70;;;2.03;;
4634;SDS011;2330;48.158;11.816;2023-07-20T04:01:28;10.93;;;2.90;;
4634;SDS011;2330;48.158;11.816;2023-07-20T04:03:55;3.87;;;2.50;;
4634;SDS011;2330;48.158;11.816;2023-07-20T04:06:22;3.50;;;2.23;;
4634;SDS011;2330;48.158;11.816;2023-07-20T04:08:49;8.10;;;2.43;;
4634;SDS011;2330;48.158;11.816;2023-07-20T04:11:16;9.47;;;2.87;;
4634;SDS011;2330;48.158;11.816;2023-07-20T04:13:43;4.57;;;2.17;;
4634;SDS011;2330;48.158;11.816;2023-07-20T04:16:10;12.10;;;2.43;;
4634;SDS011;2330;48.158;11.816;2023-07-20T04:18:37;15.17;;;2.77;;
4634;SDS011;2330;48.158;11.816;2023-07-20T04:21:04;4.53;;;2.73;;
4634;SDS011;2330;48.158;11.816;2023-07-20T04:23:30;8.53;;;2.73;;
4634;SDS011;2330;48.158;11.816;2023-07-20T04:25:57;6.30;;;2.40;;
4634;SDS011;2330;48.158;11.816;2023-07-20T04:28:24;6.17;;;2.80;;
4634;SDS011;2330;48.158;11.816;2023-07-20T04:30:52;5.63;;;2.00;;
4634;SDS011;2330;48.158;11.816;2023-07-20T04:33:19;6.80;;;2.47;;
4634;SDS011;2330;48.158;11.816;2023-07-20T04:35:50;7.37;;;2.77;;
4634;SDS011;2330;48.158;11.816;2023-07-20T04:38:21;5.90;;;2.40;;
4634;SDS011;2330;48.158;11.816;2023-07-20T04:40:48;5.93;;;2.70;;
4634;SDS011;2330;48.158;11.816;2023-07-20T04:43:16;5.67;;;2.33;;
4634;SDS011;2330;48.158;11.816;2023-07-20T04:45:43;3.53;;;2.07;;
4634;SDS011;2330;48.158;11.816;2023-07-20T04:48:11;3.10;;;2.20;;
4634;SDS011;2330;48.158;11.816;2023-07-20T04:50:43;4.23;;;2.20;;
4634;SDS011;2330;48.158;11.816;2023-07-20T04:53:11;4.10;;;2.17;;
4634;SDS011;2330;48.158;11.816;2023-07-20T04:55:39;5.10;;;2.17;;
4634;SDS011;2330;48.158;11.816;2023-07-20T04:58:06;3.80;;;2.50;;
4634;SDS011;2330;48.158;11.816;2023-07-20T05:00:34;2.87;;;2.30;;
4634;SDS011;2330;48.158;11.816;2023-07-20T05:03:01;4.27;;;2.23;;
4634;SDS011;2330;48.158;11.816;2023-07-20T05:05:28;6.43;;;2.23;;
4634;SDS011;2330;48.158;11.816;2023-07-20T05:07:54;4.20;;;2.23;;
4634;SDS011;2330;48.158;11.816;2023-07-20T05:10:21;4.00;;;1.83;;
4634;SDS011;2330;48.158;11.816;2023-07-20T05:12:48;5.47;;;2.50;;
4634;SDS011;2330;48.158;11.816;2023-07-20T05:15:15;2.43;;;2.23;;
4634;SDS011;2330;48.158;11.816;2023-07-20T05:17:42;11.50;;;2.47;;
4634;SDS011;2330;48.158;11.816;2023-07-20T05:20:09;4.80;;;2.37;;
4634;SDS011;2330;48.158;11.816;2023-07-20T05:22:36;5.63;;;2.37;;
4634;SDS011;2330;48.158;11.816;2023-07-20T05:25:09;3.53;;;1.73;;
4634;SDS011;2330;48.158;11.816;2023-07-20T05:27:37;6.97;;;2.30;;
4634;SDS011;2330;48.158;11.816;2023-07-20T05:30:05;10.43;;;2.30;;
4634;SDS011;2330;48.158;11.816;2023-07-20T05:32:33;9.80;;;2.80;;
4634;SDS011;2330;48.158;11.816;2023-07-20T05:35:00;6.33;;;3.47;;
4634;SDS011;2330;48.158;11.816;2023-07-20T05:37:27;7.40;;;2.93;;
4634;SDS011;2330;48.158;11.816;2023-07-20T05:39:54;4.17;;;3.13;;
4634;SDS011;2330;48.158;11.816;2023-07-20T05:42:21;4.43;;;2.40;;
4634;SDS011;2330;48.158;11.816;2023-07-20T05:44:48;4.27;;;2.50;;
4634;SDS011;2330;48.158;11.816;2023-07-20T05:47:16;5.43;;;2.80;;
4634;SDS011;2330;48.158;11.816;2023-07-20T05:49:43;5.90;;;2.03;;
4634;SDS011;2330;48.158;11.816;2023-07-20T05:52:09;14.60;;;2.60;;
4634;SDS011;2330;48.158;11.816;2023-07-20T05:54:36;5.83;;;2.00;;
4634;SDS011;2330;48.158;11.816;2023-07-20T05:57:03;7.80;;;2.03;;
4634;SDS011;2330;48.158;11.816;2023-07-20T05:59:30;6.30;;;2.40;;
4634;SDS011;2330;48.158;11.816;2023-07-20T06:01:57;2.43;;;2.23;;
4634;SDS011;2330;48.158;11.816;2023-07-20T06:04:24;3.30;;;2.33;;
4634;SDS011;2330;48.158;11.816;2023-07-20T06:06:51;4.70;;;2.53;;
4634;SDS011;2330;48.158;11.816;2023-07-20T06:09:18;8.00;;;2.27;;
4634;SDS011;2330;48.158;11.816;2023-07-20T06:11:45;3.23;;;2.40;;
4634;SDS011;2330;48.158;11.816;2023-07-20T06:14:12;3.60;;;1.73;;
4634;SDS011;2330;48.158;11.816;2023-07-20T06:16:39;3.30;;;2.30;;
4634;SDS011;2330;48.158;11.816;2023-07-20T06:19:06;3.30;;;2.07;;
4634;SDS011;2330;48.158;11.816;2023-07-20T06:21:32;4.50;;;2.03;;
4634;SDS011;2330;48.158;11.816;2023-07-20T06:23:59;4.80;;;2.30;;
4634;SDS011;2330;48.158;11.816;2023-07-20T06:26:26;4.20;;;2.20;;
4634;SDS011;2330;48.158;11.816;2023-07-20T06:28:53;6.07;;;2.57;;
4634;SDS011;2330;48.158;11.816;2023-07-20T06:31:19;4.40;;;1.83;;
4634;SDS011;2330;48.158;11.816;2023-07-20T06:33:46;6.43;;;2.83;;
4634;SDS011;2330;48.158;11.816;2023-07-20T06:36:15;3.97;;;2.10;;
4634;SDS011;2330;48.158;11.816;2023-07-20T06:38:43;6.13;;;2.10;;
4634;SDS011;2330;48.158;11.816;2023-07-20T06:41:30;2.90;;;2.40;;
4634;SDS011;2330;48.158;11.816;2023-07-20T06:44:00;2.73;;;2.10;;
4634;SDS011;2330;48.158;11.816;2023-07-20T06:46:27;4.80;;;2.23;;
4634;SDS011;2330;48.158;11.816;2023-07-20T06:48:54;4.37;;;2.40;;
4634;SDS011;2330;48.158;11.816;2023-07-20T06:51:24;3.00;;;2.50;;
4634;SDS011;2330;48.158;11.816;2023-07-20T06:53:51;7.17;;;2.37;;
4634;SDS011;2330;48.158;11.816;2023-07-20T06:56:18;3.77;;;2.00;;
4634;SDS011;2330;48.158;11.816;2023-07-20T06:58:49;3.23;;;2.20;;
4634;SDS011;2330;48.158;11.816;2023-07-20T07:01:15;3.63;;;2.43;;
4634;SDS011;2330;48.158;11.816;2023-07-20T07:03:43;6.57;;;2.27;;
4634;SDS011;2330;48.158;11.816;2023-07-20T07:06:10;3.43;;;1.93;;
4634;SDS011;2330;48.158;11.816;2023-07-20T07:08:39;4.27;;;2.20;;
4634;SDS011;2330;48.158;11.816;2023-07-20T07:11:06;4.30;;;2.30;;
4634;SDS011;2330;48.158;11.816;2023-07-20T07:13:32;4.30;;;2.80;;
4634;SDS011;2330;48.158;11.816;2023-07-20T07:16:01;5.90;;;2.00;;
4634;SDS011;2330;48.158;11.816;2023-07-20T07:18:28;5.17;;;2.00;;
4634;SDS011;2330;48.158;11.816;2023-07-20T07:20:56;3.60;;;2.80;;
4634;SDS011;2330;48.158;11.816;2023-07-20T07:23:27;4.37;;;2.10;;
4634;SDS011;2330;48.158;11.816;2023-07-20T07:25:54;5.73;;;2.43;;
4634;SDS011;2330;48.158;11.816;2023-07-20T07:28:21;2.17;;;1.97;;
4634;SDS011;2330;48.158;11.816;2023-07-20T07:30:48;3.00;;;2.20;;
4634;SDS011;2330;48.158;11.816;2023-07-20T07:33:15;3.50;;;1.97;;
4634;SDS011;2330;48.158;11.816;2023-07-20T07:35:42;2.07;;;1.90;;
4634;SDS011;2330;48.158;11.816;2023-07-20T07:38:08;3.73;;;2.10;;
4634;SDS011;2330;48.158;11.816;2023-07-20T07:40:55;4.57;;;2.43;;
4634;SDS011;2330;48.158;11.816;2023-07-20T07:43:22;4.33;;;1.80;;
4634;SDS011;2330;48.158;11.816;2023-07-20T07:45:49;3.40;;;1.80;;
4634;SDS011;2330;48.158;11.816;2023-07-20T07:48:16;3.00;;;2.00;;
4634;SDS011;2330;48.158;11.816;2023-07-20T07:50:43;5.80;;;1.90;;
4634;SDS011;2330;48.158;11.816;2023-07-20T07:53:10;7.43;;;2.03;;
4634;SDS011;2330;48.158;11.816;2023-07-20T07:55:38;4.90;;;2.20;;
4634;SDS011;2330;48.158;11.816;2023-07-20T07:58:05;8.80;;;2.10;;
4634;SDS011;2330;48.158;11.816;2023-07-20T08:00:31;3.67;;;2.03;;
4634;SDS011;2330;48.158;11.816;2023-07-20T08:02:58;7.73;;;2.10;;
4634;SDS011;2330;48.158;11.816;2023-07-20T08:05:25;2.60;;;2.17;;
4634;SDS011;2330;48.158;11.816;2023-07-20T08:07:52;11.70;;;2.70;;
4634;SDS011;2330;48.158;11.816;2023-07-20T08:10:19;4.17;;;1.90;;
4634;SDS011;2330;48.158;11.816;2023-07-20T08:12:46;2.93;;;1.90;;
4634;SDS011;2330;48.158;11.816;2023-07-20T08:15:13;4.43;;;1.90;;
4634;SDS011;2330;48.158;11.816;2023-07-20T08:17:41;4.13;;;2.30;;
4634;SDS011;2330;48.158;11.816;2023-07-20T08:20:10;3.13;;;2.00;;
4634;SDS011;2330;48.158;11.816;2023-07-20T08:22:40;4.03;;;2.20;;
4634;SDS011;2330;48.158;11.816;2023-07-20T08:25:07;4.30;;;2.17;;
4634;SDS011;2330;48.158;11.816;2023-07-20T08:27:35;6.70;;;2.83;;
4634;SDS011;2330;48.158;11.816;2023-07-20T08:30:02;2.67;;;1.80;;
4634;SDS011;2330;48.158;11.816;2023-07-20T08:32:32;4.17;;;2.33;;
4634;SDS011;2330;48.158;11.816;2023-07-20T08:34:59;3.10;;;2.30;;
4634;SDS011;2330;48.158;11.816;2023-07-20T08:37:26;5.00;;;2.03;;
4634;SDS011;2330;48.158;11.816;2023-07-20T08:39:53;2.83;;;2.20;;
4634;SDS011;2330;48.158;11.816;2023-07-20T08:42:19;4.67;;;2.63;;
4634;SDS011;2330;48.158;11.816;2023-07-20T08:44:48;3.67;;;2.13;;
4634;SDS011;2330;48.158;11.816;2023-07-20T08:47:18;4.60;;;2.47;;
4634;SDS011;2330;48.158;11.816;2023-07-20T08:49:50;3.23;;;2.10;;
4634;SDS011;2330;48.158;11.816;2023-07-20T08:52:18;2.27;;;1.80;;
4634;SDS011;2330;48.158;11.816;2023-07-20T08:54:45;4.67;;;1.70;;
4634;SDS011;2330;48.158;11.816;2023-07-20T08:57:12;3.00;;;1.87;;
4634;SDS011;2330;48.158;11.816;2023-07-20T08:59:43;5.03;;;1.97;;
4634;SDS011;2330;48.158;11.816;2023-07-20T09:02:10;3.37;;;2.17;;
4634;SDS011;2330;48.158;11.816;2023-07-20T09:04:45;9.70;;;1.67;;
4634;SDS011;2330;48.158;11.816;2023-07-20T09:07:12;4.10;;;2.20;;
4634;SDS011;2330;48.158;11.816;2023-07-20T09:09:43;3.53;;;1.90;;
4634;SDS011;2330;48.158;11.816;2023-07-20T09:12:14;2.30;;;1.90;;
4634;SDS011;2330;48.158;11.816;2023-07-20T09:14:45;4.93;;;2.40;;
4634;SDS011;2330;48.158;11.816;2023-07-20T09:17:13;2.00;;;1.77;;
4634;SDS011;2330;48.158;11.816;2023-07-20T09:19:46;3.77;;;1.90;;
4634;SDS011;2330;48.158;11.816;2023-07-20T09:22:14;3.10;;;1.90;;
4634;SDS011;2330;48.158;11.816;2023-07-20T09:24:40;3.20;;;2.10;;
4634;SDS011;2330;48.158;11.816;2023-07-20T09:27:10;3.30;;;1.83;;
4634;SDS011;2330;48.158;11.816;2023-07-20T09:29:50;5.60;;;2.03;;
4634;SDS011;2330;48.158;11.816;2023-07-20T09:32:18;3.30;;;1.60;;
4634;SDS011;2330;48.158;11.816;2023-07-20T09:34:50;2.93;;;1.90;;
4634;SDS011;2330;48.158;11.816;2023-07-20T09:37:21;4.77;;;2.37;;
4634;SDS011;2330;48.158;11.816;2023-07-20T09:39:49;2.27;;;1.77;;
4634;SDS011;2330;48.158;11.816;2023-07-20T09:42:21;3.83;;;1.80;;
4634;SDS011;2330;48.158;11.816;2023-07-20T09:44:51;5.80;;;1.60;;
4634;SDS011;2330;48.158;11.816;2023-07-20T09:47:22;4.57;;;1.93;;
4634;SDS011;2330;48.158;11.816;2023-07-20T09:49:58;1.67;;;1.50;;
4634;SDS011;2330;48.158;11.816;2023-07-20T09:52:32;5.27;;;1.90;;
4634;SDS011;2330;48.158;11.816;2023-07-20T09:55:04;3.53;;;1.90;;
4634;SDS011;2330;48.158;11.816;2023-07-20T09:57:35;3.93;;;2.57;;
4634;SDS011;2330;48.158;11.816;2023-07-20T10:00:03;4.13;;;2.00;;
4634;SDS011;2330;48.158;11.816;2023-07-20T10:02:47;2.30;;;1.73;;
4634;SDS011;2330;48.158;11.816;2023-07-20T10:05:17;4.20;;;2.17;;
4634;SDS011;2330;48.158;11.816;2023-07-20T10:07:49;5.00;;;1.70;;
4634;SDS011;2330;48.158;11.816;2023-07-20T10:10:36;4.67;;;2.33;;
4634;SDS011;2330;48.158;11.816;2023-07-20T10:13:07;2.03;;;1.70;;
4634;SDS011;2330;48.158;11.816;2023-07-20T10:15:54;2.57;;;1.90;;
4634;SDS011;2330;48.158;11.816;2023-07-20T10:18:25;2.23;;;1.77;;
4634;SDS011;2330;48.158;11.816;2023-07-20T10:20:56;4.20;;;1.70;;
4634;SDS011;2330;48.158;11.816;2023-07-20T10:23:28;6.73;;;1.87;;
4634;SDS011;2330;48.158;11.816;2023-07-20T10:25:56;3.80;;;2.10;;
4634;SDS011;2330;48.158;11.816;2023-07-20T10:28:26;1.70;;;1.60;;
4634;SDS011;2330;48.158;11.816;2023-07-20T10:30:54;6.70;;;2.07;;
4634;SDS011;2330;48.158;11.816;2023-07-20T10:33:20;2.80;;;1.47;;
4634;SDS011;2330;48.158;11.816;2023-07-20T10:35:52;10.50;;;2.43;;
4634;SDS011;2330;48.158;11.816;2023-07-20T10:38:26;2.17;;;1.83;;
4634;SDS011;2330;48.158;11.816;2023-07-20T10:41:18;2.40;;;1.67;;
4634;SDS011;2330;48.158;11.816;2023-07-20T10:43:46;4.67;;;1.90;;
4634;SDS011;2330;48.158;11.816;2023-07-20T10:46:14;3.10;;;2.03;;
4634;SDS011;2330;48.158;11.816;2023-07-20T10:49:00;6.53;;;1.70;;
4634;SDS011;2330;48.158;11.816;2023-07-20T10:51:38;4.23;;;2.00;;
4634;SDS011;2330;48.158;11.816;2023-07-20T10:54:07;2.47;;;1.80;;
4634;SDS011;2330;48.158;11.816;2023-07-20T10:56:44;4.33;;;1.70;;
4634;SDS011;2330;48.158;11.816;2023-07-20T10:59:18;3.20;;;1.80;;
4634;SDS011;2330;48.158;11.816;2023-07-20T11:01:46;2.27;;;1.90;;
4634;SDS011;2330;48.158;11.816;2023-07-20T11:04:19;2.50;;;1.83;;
4634;SDS011;2330;48.158;11.816;2023-07-20T11:06:46;2.33;;;2.10;;
4634;SDS011;2330;48.158;11.816;2023-07-20T11:09:22;2.10;;;1.73;;
4634;SDS011;2330;48.158;11.816;2023-07-20T11:11:56;4.90;;;2.20;;
4634;SDS011;2330;48.158;11.816;2023-07-20T11:14:44;5.30;;;2.10;;
4634;SDS011;2330;48.158;11.816;2023-07-20T11:17:20;4.10;;;2.17;;
4634;SDS011;2330;48.158;11.816;2023-07-20T11:19:56;12.33;;;2.37;;
4634;SDS011;2330;48.158;11.816;2023-07-20T11:22:26;5.47;;;1.93;;
4634;SDS011;2330;48.158;11.816;2023-07-20T11:24:56;16.70;;;3.27;;
4634;SDS011;2330;48.158;11.816;2023-07-20T11:27:24;2.87;;;2.20;;
4634;SDS011;2330;48.158;11.816;2023-07-20T11:29:51;3.77;;;1.90;;
4634;SDS011;2330;48.158;11.816;2023-07-20T11:32:21;2.43;;;2.00;;
4634;SDS011;2330;48.158;11.816;2023-07-20T11:34:49;5.47;;;2.10;;
4634;SDS011;2330;48.158;11.816;2023-07-20T11:37:17;3.77;;;2.03;;
4634;SDS011;2330;48.158;11.816;2023-07-20T11:39:45;4.00;;;1.70;;
4634;SDS011;2330;48.158;11.816;2023-07-20T11:42:13;5.60;;;2.37;;
4634;SDS011;2330;48.158;11.816;2023-07-20T11:45:01;3.50;;;2.23;;
4634;SDS011;2330;48.158;11.816;2023-07-20T11:47:31;3.23;;;1.80;;
4634;SDS011;2330;48.158;11.816;2023-07-20T11:50:02;11.70;;;2.30;;
4634;SDS011;2330;48.158;11.816;2023-07-20T11:52:30;2.50;;;1.90;;
4634;SDS011;2330;48.158;11.816;2023-07-20T11:54:57;1.57;;;1.47;;
4634;SDS011;2330;48.158;11.816;2023-07-20T11:57:24;2.27;;;1.70;;
4634;SDS011;2330;48.158;11.816;2023-07-20T11:59:55;5.17;;;1.73;;
4634;SDS011;2330;48.158;11.816;2023-07-20T12:02:27;3.07;;;2.20;;
4634;SDS011;2330;48.158;11.816;2023-07-20T12:04:55;3.43;;;2.07;;
4634;SDS011;2330;48.158;11.816;2023-07-20T12:07:22;6.40;;;2.07;;
4634;SDS011;2330;48.158;11.816;2023-07-20T12:10:08;2.30;;;1.93;;
4634;SDS011;2330;48.158;11.816;2023-07-20T12:12:39;4.70;;;2.20;;
4634;SDS011;2330;48.158;11.816;2023-07-20T12:15:19;1.87;;;1.73;;
4634;SDS011;2330;48.158;11.816;2023-07-20T12:17:51;2.80;;;1.97;;
4634;SDS011;2330;48.158;11.816;2023-07-20T12:23:02;3.93;;;2.10;;
4634;SDS011;2330;48.158;11.816;2023-07-20T12:28:07;4.97;;;2.33;;
4634;SDS011;2330;48.158;11.816;2023-07-20T12:30:36;4.00;;;1.63;;
4634;SDS011;2330;48.158;11.816;2023-07-20T12:33:03;5.03;;;2.30;;
4634;SDS011;2330;48.158;11.816;2023-07-20T12:35:31;2.40;;;2.13;;
4634;SDS011;2330;48.158;11.816;2023-07-20T12:37:58;4.83;;;1.60;;
4634;SDS011;2330;48.158;11.816;2023-07-20T12:40:25;7.50;;;1.87;;
4634;SDS011;2330;48.158;11.816;2023-07-20T12:42:52;2.63;;;1.93;;
4634;SDS011;2330;48.158;11.816;2023-07-20T12:45:19;7.80;;;1.90;;
4634;SDS011;2330;48.158;11.816;2023-07-20T12:47:46;2.27;;;1.80;;
4634;SDS011;2330;48.158;11.816;2023-07-20T12:50:13;2.77;;;1.90;;
4634;SDS011;2330;48.158;11.816;2023-07-20T12:52:40;5.93;;;1.70;;
4634;SDS011;2330;48.158;11.816;2023-07-20T12:55:07;8.43;;;2.03;;
4634;SDS011;2330;48.158;11.816;2023-07-20T12:57:35;2.40;;;1.90;;
4634;SDS011;2330;48.158;11.816;2023-07-20T13:00:04;3.43;;;1.80;;
4634;SDS011;2330;48.158;11.816;2023-07-20T13:02:32;3.60;;;2.17;;
4634;SDS011;2330;48.158;11.816;2023-07-20T13:04:59;3.37;;;2.30;;
4634;SDS011;2330;48.158;11.816;2023-07-20T13:07:30;10.20;;;2.00;;
4634;SDS011;2330;48.158;11.816;2023-07-20T13:10:01;5.80;;;1.80;;
4634;SDS011;2330;48.158;11.816;2023-07-20T13:12:30;5.23;;;2.50;;
4634;SDS011;2330;48.158;11.816;2023-07-20T13:15:00;6.90;;;2.03;;
4634;SDS011;2330;48.158;11.816;2023-07-20T13:17:37;3.60;;;1.90;;
4634;SDS011;2330;48.158;11.816;2023-07-20T13:20:06;5.50;;;1.80;;
4634;SDS011;2330;48.158;11.816;2023-07-20T13:22:38;12.07;;;2.30;;
4634;SDS011;2330;48.158;11.816;2023-07-20T13:25:05;10.80;;;2.73;;
4634;SDS011;2330;48.158;11.816;2023-07-20T13:27:33;4.53;;;2.33;;
4634;SDS011;2330;48.158;11.816;2023-07-20T13:30:00;6.73;;;2.10;;
4634;SDS011;2330;48.158;11.816;2023-07-20T13:32:29;2.37;;;2.00;;
4634;SDS011;2330;48.158;11.816;2023-07-20T13:34:59;7.17;;;2.20;;
4634;SDS011;2330;48.158;11.816;2023-07-20T13:37:26;4.03;;;2.07;;
4634;SDS011;2330;48.158;11.816;2023-07-20T13:39:54;2.57;;;1.77;;
4634;SDS011;2330;48.158;11.816;2023-07-20T13:42:22;4.13;;;2.07;;
4634;SDS011;2330;48.158;11.816;2023-07-20T13:44:49;3.50;;;2.00;;
4634;SDS011;2330;48.158;11.816;2023-07-20T13:47:16;3.30;;;1.90;;
4634;SDS011;2330;48.158;11.816;2023-07-20T13:49:47;2.87;;;1.57;;
4634;SDS011;2330;48.158;11.816;2023-07-20T13:52:28;4.60;;;1.83;;
4634;SDS011;2330;48.158;11.816;2023-07-20T13:54:58;4.30;;;1.90;;
4634;SDS011;2330;48.158;11.816;2023-07-20T13:57:24;8.90;;;1.80;;
4634;SDS011;2330;48.158;11.816;2023-07-20T13:59:52;6.53;;;1.70;;
4634;SDS011;2330;48.158;11.816;2023-07-20T14:02:19;9.40;;;2.00;;
4634;SDS011;2330;48.158;11.816;2023-07-20T14:04:49;19.63;;;2.80;;
4634;SDS011;2330;48.158;11.816;2023-07-20T14:07:36;6.40;;;2.20;;
4634;SDS011;2330;48.158;11.816;2023-07-20T14:10:03;4.30;;;2.37;;
4634;SDS011;2330;48.158;11.816;2023-07-20T14:12:33;2.23;;;1.53;;
4634;SDS011;2330;48.158;11.816;2023-07-20T14:15:00;1.90;;;1.60;;
4634;SDS011;2330;48.158;11.816;2023-07-20T14:17:28;12.80;;;1.87;;
4634;SDS011;2330;48.158;11.816;2023-07-20T14:19:58;7.20;;;2.10;;
4634;SDS011;2330;48.158;11.816;2023-07-20T14:22:24;6.30;;;2.17;;
4634;SDS011;2330;48.158;11.816;2023-07-20T14:24:52;2.70;;;1.60;;
4634;SDS011;2330;48.158;11.816;2023-07-20T14:27:19;1.70;;;1.50;;
4634;SDS011;2330;48.158;11.816;2023-07-20T14:29:47;3.80;;;1.43;;
4634;SDS011;2330;48.158;11.816;2023-07-20T14:32:13;4.20;;;1.80;;
4634;SDS011;2330;48.158;11.816;2023-07-20T14:34:40;5.40;;;1.93;;
4634;SDS011;2330;48.158;11.816;2023-07-20T14:37:07;4.13;;;1.63;;
4634;SDS011;2330;48.158;11.816;2023-07-20T14:39:34;9.53;;;1.60;;
4634;SDS011;2330;48.158;11.816;2023-07-20T14:42:01;14.47;;;2.00;;
4634;SDS011;2330;48.158;11.816;2023-07-20T14:44:30;7.63;;;1.70;;
4634;SDS011;2330;48.158;11.816;2023-07-20T14:46:57;1.73;;;1.33;;
4634;SDS011;2330;48.158;11.816;2023-07-20T14:49:39;2.97;;;1.50;;
4634;SDS011;2330;48.158;11.816;2023-07-20T14:52:06;3.50;;;1.70;;
4634;SDS011;2330;48.158;11.816;2023-07-20T14:54:41;3.73;;;1.70;;
4634;SDS011;2330;48.158;11.816;2023-07-20T14:57:07;7.63;;;2.00;;
4634;SDS011;2330;48.158;11.816;2023-07-20T14:59:40;6.40;;;1.60;;
4634;SDS011;2330;48.158;11.816;2023-07-20T15:02:08;6.83;;;1.93;;
4634;SDS011;2330;48.158;11.816;2023-07-20T15:04:35;9.27;;;2.50;;
4634;SDS011;2330;48.158;11.816;2023-07-20T15:07:01;7.50;;;1.67;;
4634;SDS011;2330;48.158;11.816;2023-07-20T15:09:29;6.33;;;2.10;;
4634;SDS011;2330;48.158;11.816;2023-07-20T15:11:56;8.27;;;2.83;;
4634;SDS011;2330;48.158;11.816;2023-07-20T15:14:22;4.13;;;1.77;;
4634;SDS011;2330;48.158;11.816;2023-07-20T15:16:49;3.40;;;1.90;;
4634;SDS011;2330;48.158;11.816;2023-07-20T15:19:16;2.80;;;1.43;;
4634;SDS011;2330;48.158;11.816;2023-07-20T15:21:43;4.93;;;1.97;;